sensor_id;sensor_type;location;lat;lon;timestamp;pressure;altitude;pressure_sealevel;temperature;humidity
72116;BME280;59991;52.140;5.428;2022-08-19T00:00:30;101415.09;;;18.29;79.58
72116;BME280;59991;52.140;5.428;2022-08-19T00:01:02;101410.78;;;18.28;80.96
72116;BME280;59991;52.140;5.428;2022-08-19T00:01:36;101417.53;;;18.27;80.36
72116;BME280;59991;52.140;5.428;2022-08-19T00:02:08;101415.53;;;18.27;81.41
72116;BME280;59991;52.140;5.428;2022-08-19T00:02:40;101411.22;;;18.26;79.96
72116;BME280;59991;52.140;5.428;2022-08-19T00:03:20;101412.00;;;18.27;80.82
72116;BME280;59991;52.140;5.428;2022-08-19T00:03:52;101411.22;;;18.26;81.01
72116;BME280;59991;52.140;5.428;2022-08-19T00:04:30;101415.16;;;18.25;80.90
72116;BME280;59991;52.140;5.428;2022-08-19T00:05:03;101419.91;;;18.25;80.96
72116;BME280;59991;52.140;5.428;2022-08-19T00:05:35;101413.59;;;18.24;80.48
72116;BME280;59991;52.140;5.428;2022-08-19T00:06:07;101411.66;;;18.21;80.71
72116;BME280;59991;52.140;5.428;2022-08-19T00:06:41;101414.03;;;18.23;80.91
72116;BME280;59991;52.140;5.428;2022-08-19T00:07:31;101411.25;;;18.23;80.51
72116;BME280;59991;52.140;5.428;2022-08-19T00:08:03;101412.44;;;18.22;80.79
72116;BME280;59991;52.140;5.428;2022-08-19T00:08:35;101411.66;;;18.21;80.23
72116;BME280;59991;52.140;5.428;2022-08-19T00:09:16;101419.16;;;18.21;79.95
72116;BME280;59991;52.140;5.428;2022-08-19T00:09:47;101422.34;;;18.19;80.73
72116;BME280;59991;52.140;5.428;2022-08-19T00:10:36;101423.13;;;18.20;80.33
72116;BME280;59991;52.140;5.428;2022-08-19T00:11:08;101421.19;;;18.17;80.96
72116;BME280;59991;52.140;5.428;2022-08-19T00:11:49;101417.28;;;18.14;80.66
72116;BME280;59991;52.140;5.428;2022-08-19T00:12:21;101420.44;;;18.13;81.21
72116;BME280;59991;52.140;5.428;2022-08-19T00:12:52;101420.44;;;18.13;80.96
72116;BME280;59991;52.140;5.428;2022-08-19T00:13:42;101422.84;;;18.11;80.99
72116;BME280;59991;52.140;5.428;2022-08-19T00:14:16;101421.72;;;18.08;81.03
72116;BME280;59991;52.140;5.428;2022-08-19T00:14:47;101422.50;;;18.09;80.78
72116;BME280;59991;52.140;5.428;2022-08-19T00:15:21;101420.94;;;18.08;80.76
72116;BME280;59991;52.140;5.428;2022-08-19T00:17:00;101431.97;;;18.08;80.53
72116;BME280;59991;52.140;5.428;2022-08-19T00:17:32;101428.84;;;18.06;80.99
72116;BME280;59991;52.140;5.428;2022-08-19T00:18:03;101427.28;;;18.05;81.31
72116;BME280;59991;52.140;5.428;2022-08-19T00:18:35;101428.47;;;18.04;81.15
72116;BME280;59991;52.140;5.428;2022-08-19T00:19:07;101427.31;;;18.01;81.17
72116;BME280;59991;52.140;5.428;2022-08-19T00:19:39;101429.66;;;18.03;80.49
72116;BME280;59991;52.140;5.428;2022-08-19T00:20:15;101426.91;;;18.03;80.93
72116;BME280;59991;52.140;5.428;2022-08-19T00:20:48;101424.97;;;18.00;81.37
72116;BME280;59991;52.140;5.428;2022-08-19T00:21:20;101427.72;;;18.00;81.20
72116;BME280;59991;52.140;5.428;2022-08-19T00:21:52;101428.91;;;17.99;81.18
72116;BME280;59991;52.140;5.428;2022-08-19T00:22:23;101428.13;;;17.98;80.85
72116;BME280;59991;52.140;5.428;2022-08-19T00:23:13;101423.41;;;17.99;81.16
72116;BME280;59991;52.140;5.428;2022-08-19T00:23:44;101417.50;;;17.97;80.59
72116;BME280;59991;52.140;5.428;2022-08-19T00:24:16;101422.25;;;17.96;80.55
72116;BME280;59991;52.140;5.428;2022-08-19T00:25:05;101422.25;;;17.96;80.95
72116;BME280;59991;52.140;5.428;2022-08-19T00:25:37;101423.44;;;17.95;80.78
72116;BME280;59991;52.140;5.428;2022-08-19T00:26:10;101418.34;;;17.93;80.60
72116;BME280;59991;52.140;5.428;2022-08-19T00:26:43;101418.72;;;17.95;80.95
72116;BME280;59991;52.140;5.428;2022-08-19T00:27:14;101417.56;;;17.93;80.39
72116;BME280;59991;52.140;5.428;2022-08-19T00:27:57;101415.19;;;17.91;80.81
72116;BME280;59991;52.140;5.428;2022-08-19T00:28:30;101414.09;;;17.89;80.70
72116;BME280;59991;52.140;5.428;2022-08-19T00:29:03;101421.13;;;17.90;80.66
72116;BME280;59991;52.140;5.428;2022-08-19T00:29:34;101412.50;;;17.88;81.07
72116;BME280;59991;52.140;5.428;2022-08-19T00:30:07;101413.63;;;17.90;81.20
72116;BME280;59991;52.140;5.428;2022-08-19T00:30:38;101414.88;;;17.89;80.75
72116;BME280;59991;52.140;5.428;2022-08-19T00:31:10;101419.94;;;17.91;80.57
72116;BME280;59991;52.140;5.428;2022-08-19T00:31:43;101414.88;;;17.89;81.01
72116;BME280;59991;52.140;5.428;2022-08-19T00:32:14;101415.28;;;17.88;80.96
72116;BME280;59991;52.140;5.428;2022-08-19T00:32:48;101415.28;;;17.88;81.33
72116;BME280;59991;52.140;5.428;2022-08-19T00:33:20;101418.81;;;17.88;80.95
72116;BME280;59991;52.140;5.428;2022-08-19T00:34:11;101423.56;;;17.88;80.97
72116;BME280;59991;52.140;5.428;2022-08-19T00:34:43;101422.75;;;17.87;81.07
72116;BME280;59991;52.140;5.428;2022-08-19T00:35:15;101421.19;;;17.86;80.98
72116;BME280;59991;52.140;5.428;2022-08-19T00:35:46;101416.09;;;17.85;80.91
72116;BME280;59991;52.140;5.428;2022-08-19T00:36:26;101427.13;;;17.85;81.19
72116;BME280;59991;52.140;5.428;2022-08-19T00:36:59;101415.72;;;17.83;80.69
72116;BME280;59991;52.140;5.428;2022-08-19T00:37:31;101416.13;;;17.81;81.54
72116;BME280;59991;52.140;5.428;2022-08-19T00:38:02;101424.41;;;17.81;81.42
72116;BME280;59991;52.140;5.428;2022-08-19T00:38:34;101427.16;;;17.81;81.13
72116;BME280;59991;52.140;5.428;2022-08-19T00:39:08;101417.72;;;17.79;81.40
72116;BME280;59991;52.140;5.428;2022-08-19T00:40:30;101428.72;;;17.82;81.25
72116;BME280;59991;52.140;5.428;2022-08-19T00:41:02;101434.25;;;17.82;81.02
72116;BME280;59991;52.140;5.428;2022-08-19T00:41:34;101425.22;;;17.78;80.84
72116;BME280;59991;52.140;5.428;2022-08-19T00:42:23;101422.44;;;17.82;81.23
72116;BME280;59991;52.140;5.428;2022-08-19T00:42:54;101421.66;;;17.81;81.31
72116;BME280;59991;52.140;5.428;2022-08-19T00:43:27;101416.16;;;17.78;81.63
72116;BME280;59991;52.140;5.428;2022-08-19T00:44:23;101424.81;;;17.80;80.99
72116;BME280;59991;52.140;5.428;2022-08-19T00:44:57;101412.63;;;17.77;81.43
72116;BME280;59991;52.140;5.428;2022-08-19T00:45:29;101419.34;;;17.76;81.38
72116;BME280;59991;52.140;5.428;2022-08-19T00:46:07;101416.94;;;17.78;80.60
72116;BME280;59991;52.140;5.428;2022-08-19T00:46:41;101423.66;;;17.77;81.05
72116;BME280;59991;52.140;5.428;2022-08-19T00:47:13;101415.78;;;17.76;81.73
72116;BME280;59991;52.140;5.428;2022-08-19T00:47:46;101417.78;;;17.75;81.63
72116;BME280;59991;52.140;5.428;2022-08-19T00:48:19;101417.00;;;17.75;81.49
72116;BME280;59991;52.140;5.428;2022-08-19T00:48:51;101419.75;;;17.75;81.59
72116;BME280;59991;52.140;5.428;2022-08-19T00:49:29;101418.97;;;17.74;80.83
72116;BME280;59991;52.140;5.428;2022-08-19T00:50:02;101417.00;;;17.75;81.01
72116;BME280;59991;52.140;5.428;2022-08-19T00:50:34;101416.63;;;17.73;81.49
72116;BME280;59991;52.140;5.428;2022-08-19T00:51:22;101415.84;;;17.72;81.81
72116;BME280;59991;52.140;5.428;2022-08-19T00:52:17;101417.81;;;17.72;81.75
72116;BME280;59991;52.140;5.428;2022-08-19T00:53:10;101421.00;;;17.70;80.79
72116;BME280;59991;52.140;5.428;2022-08-19T00:53:41;101419.06;;;17.67;81.01
72116;BME280;59991;52.140;5.428;2022-08-19T00:54:15;101417.88;;;17.68;81.35
72116;BME280;59991;52.140;5.428;2022-08-19T00:54:47;101419.84;;;17.68;80.47
72116;BME280;59991;52.140;5.428;2022-08-19T00:56:14;101417.88;;;17.68;80.82
72116;BME280;59991;52.140;5.428;2022-08-19T00:56:47;101423.38;;;17.68;81.62
72116;BME280;59991;52.140;5.428;2022-08-19T00:57:28;101419.06;;;17.67;81.48
72116;BME280;59991;52.140;5.428;2022-08-19T00:58:05;101413.19;;;17.65;81.86
72116;BME280;59991;52.140;5.428;2022-08-19T00:58:38;101415.94;;;17.65;81.44
72116;BME280;59991;52.140;5.428;2022-08-19T00:59:11;101415.16;;;17.65;81.31
72116;BME280;59991;52.140;5.428;2022-08-19T00:59:45;101413.56;;;17.64;81.75
72116;BME280;59991;52.140;5.428;2022-08-19T01:00:32;101411.22;;;17.62;80.95
72116;BME280;59991;52.140;5.428;2022-08-19T01:01:06;101414.75;;;17.63;81.37
72116;BME280;59991;52.140;5.428;2022-08-19T01:01:41;101417.50;;;17.63;81.42
72116;BME280;59991;52.140;5.428;2022-08-19T01:02:15;101412.78;;;17.63;81.38
72116;BME280;59991;52.140;5.428;2022-08-19T01:02:47;101408.06;;;17.60;81.55
72116;BME280;59991;52.140;5.428;2022-08-19T01:03:20;101404.91;;;17.61;81.47
72116;BME280;59991;52.140;5.428;2022-08-19T01:03:52;101414.75;;;17.63;81.97
72116;BME280;59991;52.140;5.428;2022-08-19T01:04:42;101415.94;;;17.61;81.22
72116;BME280;59991;52.140;5.428;2022-08-19T01:05:20;101415.16;;;17.61;81.15
72116;BME280;59991;52.140;5.428;2022-08-19T01:05:54;101415.56;;;17.59;81.27
72116;BME280;59991;52.140;5.428;2022-08-19T01:06:50;101418.31;;;17.59;81.39
72116;BME280;59991;52.140;5.428;2022-08-19T01:07:21;101418.72;;;17.58;81.55
72116;BME280;59991;52.140;5.428;2022-08-19T01:07:56;101418.72;;;17.58;81.44
72116;BME280;59991;52.140;5.428;2022-08-19T01:08:28;101420.72;;;17.57;81.40
72116;BME280;59991;52.140;5.428;2022-08-19T01:08:59;101409.69;;;17.57;81.44
72116;BME280;59991;52.140;5.428;2022-08-19T01:09:31;101411.28;;;17.55;81.38
72116;BME280;59991;52.140;5.428;2022-08-19T01:10:03;101414.81;;;17.55;81.54
72116;BME280;59991;52.140;5.428;2022-08-19T01:10:40;101423.47;;;17.57;81.33
72116;BME280;59991;52.140;5.428;2022-08-19T01:11:12;101418.34;;;17.56;81.64
72116;BME280;59991;52.140;5.428;2022-08-19T01:11:44;101414.06;;;17.51;81.90
72116;BME280;59991;52.140;5.428;2022-08-19T01:12:16;101416.41;;;17.53;81.80
72116;BME280;59991;52.140;5.428;2022-08-19T01:12:49;101420.75;;;17.54;81.52
72116;BME280;59991;52.140;5.428;2022-08-19T01:13:27;101417.59;;;17.52;81.50
72116;BME280;59991;52.140;5.428;2022-08-19T01:14:19;101413.31;;;17.51;80.73
72116;BME280;59991;52.140;5.428;2022-08-19T01:14:51;101414.44;;;17.53;81.60
72116;BME280;59991;52.140;5.428;2022-08-19T01:15:27;101415.22;;;17.54;81.38
72116;BME280;59991;52.140;5.428;2022-08-19T01:16:09;101414.44;;;17.53;81.94
72116;BME280;59991;52.140;5.428;2022-08-19T01:16:59;101419.97;;;17.53;81.32
72116;BME280;59991;52.140;5.428;2022-08-19T01:17:32;101418.38;;;17.52;81.64
72116;BME280;59991;52.140;5.428;2022-08-19T01:18:07;101416.06;;;17.51;81.39
72116;BME280;59991;52.140;5.428;2022-08-19T01:18:42;101418.03;;;17.50;81.08
72116;BME280;59991;52.140;5.428;2022-08-19T01:19:28;101414.91;;;17.48;81.68
72116;BME280;59991;52.140;5.428;2022-08-19T01:20:00;101410.97;;;17.49;81.39
72116;BME280;59991;52.140;5.428;2022-08-19T01:20:31;101415.31;;;17.47;81.26
72116;BME280;59991;52.140;5.428;2022-08-19T01:21:31;101412.19;;;17.45;81.53
72116;BME280;59991;52.140;5.428;2022-08-19T01:22:11;101416.50;;;17.46;81.71
72116;BME280;59991;52.140;5.428;2022-08-19T01:22:49;101410.63;;;17.44;82.07
72116;BME280;59991;52.140;5.428;2022-08-19T01:23:40;101406.28;;;17.43;82.41
72116;BME280;59991;52.140;5.428;2022-08-19T01:24:15;101408.28;;;17.42;81.87
72116;BME280;59991;52.140;5.428;2022-08-19T01:24:46;101413.78;;;17.42;81.88
72116;BME280;59991;52.140;5.428;2022-08-19T01:25:26;101405.13;;;17.40;81.90
72116;BME280;59991;52.140;5.428;2022-08-19T01:25:59;101407.50;;;17.42;82.19
72116;BME280;59991;52.140;5.428;2022-08-19T01:26:30;101414.97;;;17.41;82.06
72116;BME280;59991;52.140;5.428;2022-08-19T01:27:21;101413.00;;;17.42;82.21
72116;BME280;59991;52.140;5.428;2022-08-19T01:27:54;101415.75;;;17.42;82.13
72116;BME280;59991;52.140;5.428;2022-08-19T01:29:31;101413.41;;;17.40;82.23
72116;BME280;59991;52.140;5.428;2022-08-19T01:30:04;101408.31;;;17.39;82.16
72116;BME280;59991;52.140;5.428;2022-08-19T01:30:37;101417.75;;;17.38;82.45
72116;BME280;59991;52.140;5.428;2022-08-19T01:31:15;101417.75;;;17.38;82.49
72116;BME280;59991;52.140;5.428;2022-08-19T01:31:58;101411.88;;;17.36;81.69
72116;BME280;59991;52.140;5.428;2022-08-19T01:32:31;101418.56;;;17.38;81.56
72116;BME280;59991;52.140;5.428;2022-08-19T01:33:56;101422.50;;;17.37;81.31
72116;BME280;59991;52.140;5.428;2022-08-19T01:34:28;101416.19;;;17.37;81.87
72116;BME280;59991;52.140;5.428;2022-08-19T01:35:01;101415.81;;;17.35;82.19
72116;BME280;59991;52.140;5.428;2022-08-19T01:35:35;101418.56;;;17.35;82.14
72116;BME280;59991;52.140;5.428;2022-08-19T01:36:12;101420.56;;;17.34;81.87
72116;BME280;59991;52.140;5.428;2022-08-19T01:36:46;101420.94;;;17.36;81.19
72116;BME280;59991;52.140;5.428;2022-08-19T01:37:18;101420.16;;;17.36;82.20
72116;BME280;59991;52.140;5.428;2022-08-19T01:38:10;101418.56;;;17.35;81.63
72116;BME280;59991;52.140;5.428;2022-08-19T01:39:40;101418.19;;;17.33;81.45
72116;BME280;59991;52.140;5.428;2022-08-19T01:40:12;101417.84;;;17.31;81.56
72116;BME280;59991;52.140;5.428;2022-08-19T01:40:43;101426.91;;;17.31;81.39
72116;BME280;59991;52.140;5.428;2022-08-19T01:41:17;101426.13;;;17.31;81.49
72116;BME280;59991;52.140;5.428;2022-08-19T01:41:49;101424.16;;;17.31;81.98
72116;BME280;59991;52.140;5.428;2022-08-19T01:42:20;101415.50;;;17.29;82.11
72116;BME280;59991;52.140;5.428;2022-08-19T01:43:01;101423.78;;;17.29;82.33
72116;BME280;59991;52.140;5.428;2022-08-19T01:43:34;101421.03;;;17.29;82.36
72116;BME280;59991;52.140;5.428;2022-08-19T01:44:07;101420.22;;;17.29;82.24
72116;BME280;59991;52.140;5.428;2022-08-19T01:45:08;101428.50;;;17.29;81.94
72116;BME280;59991;52.140;5.428;2022-08-19T01:45:39;101413.94;;;17.28;82.02
72116;BME280;59991;52.140;5.428;2022-08-19T01:46:30;101417.09;;;17.26;81.11
72116;BME280;59991;52.140;5.428;2022-08-19T01:47:20;101415.53;;;17.25;81.67
72116;BME280;59991;52.140;5.428;2022-08-19T01:47:52;101418.28;;;17.25;81.59
72116;BME280;59991;52.140;5.428;2022-08-19T01:49:32;101416.72;;;17.24;81.90
72116;BME280;59991;52.140;5.428;2022-08-19T01:50:06;101413.19;;;17.24;82.46
72116;BME280;59991;52.140;5.428;2022-08-19T01:50:38;101417.91;;;17.23;82.22
72116;BME280;59991;52.140;5.428;2022-08-19T01:51:10;101418.69;;;17.24;82.13
72116;BME280;59991;52.140;5.428;2022-08-19T01:52:00;101416.34;;;17.22;81.70
72116;BME280;59991;52.140;5.428;2022-08-19T01:52:32;101418.31;;;17.22;81.97
72116;BME280;59991;52.140;5.428;2022-08-19T01:53:09;101417.53;;;17.21;82.19
72116;BME280;59991;52.140;5.428;2022-08-19T01:53:41;101412.84;;;17.18;82.50
72116;BME280;59991;52.140;5.428;2022-08-19T01:54:16;101418.72;;;17.20;81.79
72116;BME280;59991;52.140;5.428;2022-08-19T01:54:57;101416.78;;;17.17;82.43
72116;BME280;59991;52.140;5.428;2022-08-19T01:55:29;101410.50;;;17.17;82.39
72116;BME280;59991;52.140;5.428;2022-08-19T01:56:01;101414.03;;;17.17;82.26
72116;BME280;59991;52.140;5.428;2022-08-19T01:56:33;101417.19;;;17.16;82.79
72116;BME280;59991;52.140;5.428;2022-08-19T01:57:08;101416.00;;;17.17;82.00
72116;BME280;59991;52.140;5.428;2022-08-19T01:58:02;101416.41;;;17.15;82.49
72116;BME280;59991;52.140;5.428;2022-08-19T01:58:41;101419.94;;;17.16;82.29
72116;BME280;59991;52.140;5.428;2022-08-19T01:59:19;101415.63;;;17.15;82.23
72116;BME280;59991;52.140;5.428;2022-08-19T01:59:51;101423.88;;;17.15;81.83
72116;BME280;59991;52.140;5.428;2022-08-19T02:00:24;101427.44;;;17.15;81.67
72116;BME280;59991;52.140;5.428;2022-08-19T02:00:57;101425.88;;;17.14;81.38
72116;BME280;59991;52.140;5.428;2022-08-19T02:01:28;101418.44;;;17.11;81.77
72116;BME280;59991;52.140;5.428;2022-08-19T02:02:05;101425.06;;;17.14;81.75
72116;BME280;59991;52.140;5.428;2022-08-19T02:02:38;101424.28;;;17.13;81.56
72116;BME280;59991;52.140;5.428;2022-08-19T02:03:14;101425.06;;;17.14;81.85
72116;BME280;59991;52.140;5.428;2022-08-19T02:04:05;101425.88;;;17.14;81.95
72116;BME280;59991;52.140;5.428;2022-08-19T02:04:37;101428.63;;;17.14;81.96
72116;BME280;59991;52.140;5.428;2022-08-19T02:05:10;101421.53;;;17.13;81.63
72116;BME280;59991;52.140;5.428;2022-08-19T02:05:43;101431.38;;;17.14;81.66
72116;BME280;59991;52.140;5.428;2022-08-19T02:06:14;101426.25;;;17.13;81.90
72116;BME280;59991;52.140;5.428;2022-08-19T02:06:48;101421.19;;;17.11;81.52
72116;BME280;59991;52.140;5.428;2022-08-19T02:07:20;101421.97;;;17.12;81.57
72116;BME280;59991;52.140;5.428;2022-08-19T02:08:10;101429.47;;;17.11;81.15
72116;BME280;59991;52.140;5.428;2022-08-19T02:08:42;101423.94;;;17.11;81.32
72116;BME280;59991;52.140;5.428;2022-08-19T02:09:18;101425.13;;;17.10;81.57
72116;BME280;59991;52.140;5.428;2022-08-19T02:09:49;101418.06;;;17.09;81.75
72116;BME280;59991;52.140;5.428;2022-08-19T02:11:21;101417.69;;;17.07;82.05
72116;BME280;59991;52.140;5.428;2022-08-19T02:11:53;101425.56;;;17.05;81.13
72116;BME280;59991;52.140;5.428;2022-08-19T02:12:24;101424.78;;;17.05;81.86
72116;BME280;59991;52.140;5.428;2022-08-19T02:12:56;101418.09;;;17.02;82.05
72116;BME280;59991;52.140;5.428;2022-08-19T02:13:27;101426.38;;;17.02;81.72
72116;BME280;59991;52.140;5.428;2022-08-19T02:14:00;101421.69;;;16.99;81.56
72116;BME280;59991;52.140;5.428;2022-08-19T02:14:36;101425.19;;;17.03;81.71
72116;BME280;59991;52.140;5.428;2022-08-19T02:15:08;101417.31;;;17.02;81.95
72116;BME280;59991;52.140;5.428;2022-08-19T02:15:40;101422.06;;;17.01;81.83
72116;BME280;59991;52.140;5.428;2022-08-19T02:16:11;101420.47;;;17.00;81.64
72116;BME280;59991;52.140;5.428;2022-08-19T02:16:43;101424.84;;;16.98;81.51
72116;BME280;59991;52.140;5.428;2022-08-19T02:17:33;101427.19;;;16.99;81.50
72116;BME280;59991;52.140;5.428;2022-08-19T02:18:24;101423.66;;;16.99;81.46
72116;BME280;59991;52.140;5.428;2022-08-19T02:18:58;101416.97;;;16.96;81.82
72116;BME280;59991;52.140;5.428;2022-08-19T02:19:32;101420.50;;;16.97;81.67
72116;BME280;59991;52.140;5.428;2022-08-19T02:20:06;101426.03;;;16.97;82.05
72116;BME280;59991;52.140;5.428;2022-08-19T02:20:39;101421.28;;;16.97;82.02
72116;BME280;59991;52.140;5.428;2022-08-19T02:21:11;101427.22;;;16.96;81.74
72116;BME280;59991;52.140;5.428;2022-08-19T02:21:43;101416.59;;;16.94;81.89
72116;BME280;59991;52.140;5.428;2022-08-19T02:22:14;101423.66;;;16.95;81.89
72116;BME280;59991;52.140;5.428;2022-08-19T02:23:04;101411.88;;;16.95;81.99
72116;BME280;59991;52.140;5.428;2022-08-19T02:23:44;101416.59;;;16.94;82.32
72116;BME280;59991;52.140;5.428;2022-08-19T02:24:16;101420.56;;;16.93;82.03
72116;BME280;59991;52.140;5.428;2022-08-19T02:25:06;101420.97;;;16.91;82.00
72116;BME280;59991;52.140;5.428;2022-08-19T02:26:28;101417.84;;;16.89;81.78
72116;BME280;59991;52.140;5.428;2022-08-19T02:26:59;101418.66;;;16.86;81.88
72116;BME280;59991;52.140;5.428;2022-08-19T02:27:31;101417.44;;;16.87;81.90
72116;BME280;59991;52.140;5.428;2022-08-19T02:28:02;101421.41;;;16.86;82.28
72116;BME280;59991;52.140;5.428;2022-08-19T02:28:34;101415.91;;;16.83;82.27
72116;BME280;59991;52.140;5.428;2022-08-19T02:29:05;101424.16;;;16.86;81.86
72116;BME280;59991;52.140;5.428;2022-08-19T02:29:36;101419.81;;;16.85;81.83
72116;BME280;59991;52.140;5.428;2022-08-19T02:30:11;101419.03;;;16.85;82.18
72116;BME280;59991;52.140;5.428;2022-08-19T02:30:45;101426.91;;;16.86;82.08
72116;BME280;59991;52.140;5.428;2022-08-19T02:31:19;101434.38;;;16.86;81.87
72116;BME280;59991;52.140;5.428;2022-08-19T02:31:51;101428.88;;;16.86;82.31
72116;BME280;59991;52.140;5.428;2022-08-19T02:32:22;101427.31;;;16.85;82.99
72116;BME280;59991;52.140;5.428;2022-08-19T02:32:54;101426.53;;;16.84;82.25
72116;BME280;59991;52.140;5.428;2022-08-19T02:33:26;101430.84;;;16.85;82.34
72116;BME280;59991;52.140;5.428;2022-08-19T02:33:57;101427.31;;;16.85;82.56
72116;BME280;59991;52.140;5.428;2022-08-19T02:34:29;101431.25;;;16.84;82.35
72116;BME280;59991;52.140;5.428;2022-08-19T02:35:01;101424.56;;;16.81;82.00
72116;BME280;59991;52.140;5.428;2022-08-19T02:35:43;101426.16;;;16.82;81.90
72116;BME280;59991;52.140;5.428;2022-08-19T02:36:16;101429.31;;;16.81;81.61
72116;BME280;59991;52.140;5.428;2022-08-19T02:36:51;101432.84;;;16.81;81.85
72116;BME280;59991;52.140;5.428;2022-08-19T02:37:23;101434.81;;;16.81;82.22
72116;BME280;59991;52.140;5.428;2022-08-19T02:38:13;101437.94;;;16.83;82.37
72116;BME280;59991;52.140;5.428;2022-08-19T02:39:14;101437.16;;;16.82;82.34
72116;BME280;59991;52.140;5.428;2022-08-19T02:40:04;101437.56;;;16.81;82.45
72116;BME280;59991;52.140;5.428;2022-08-19T02:41:38;101436.41;;;16.78;81.91
72116;BME280;59991;52.140;5.428;2022-08-19T02:42:09;101442.69;;;16.79;82.47
72116;BME280;59991;52.140;5.428;2022-08-19T02:42:41;101440.34;;;16.77;82.06
72116;BME280;59991;52.140;5.428;2022-08-19T02:43:14;101443.09;;;16.77;82.27
72116;BME280;59991;52.140;5.428;2022-08-19T02:44:03;101442.72;;;16.75;82.25
72116;BME280;59991;52.140;5.428;2022-08-19T02:44:55;101443.50;;;16.76;81.93
72116;BME280;59991;52.140;5.428;2022-08-19T02:45:32;101443.91;;;16.74;82.47
72116;BME280;59991;52.140;5.428;2022-08-19T02:46:24;101449.41;;;16.74;82.36
72116;BME280;59991;52.140;5.428;2022-08-19T02:46:58;101443.16;;;16.74;82.61
72116;BME280;59991;52.140;5.428;2022-08-19T02:47:29;101443.94;;;16.71;82.43
72116;BME280;59991;52.140;5.428;2022-08-19T02:48:01;101443.53;;;16.72;81.91
72116;BME280;59991;52.140;5.428;2022-08-19T02:48:43;101448.28;;;16.72;82.39
72116;BME280;59991;52.140;5.428;2022-08-19T02:49:33;101441.19;;;16.71;82.23
72116;BME280;59991;52.140;5.428;2022-08-19T02:50:05;101446.69;;;16.71;82.28
72116;BME280;59991;52.140;5.428;2022-08-19T02:50:38;101446.69;;;16.71;81.90
72116;BME280;59991;52.140;5.428;2022-08-19T02:51:15;101444.34;;;16.69;82.24
72116;BME280;59991;52.140;5.428;2022-08-19T02:51:47;101442.41;;;16.66;82.78
72116;BME280;59991;52.140;5.428;2022-08-19T02:52:18;101436.09;;;16.66;82.49
72116;BME280;59991;52.140;5.428;2022-08-19T02:52:50;101440.03;;;16.68;82.18
72116;BME280;59991;52.140;5.428;2022-08-19T02:53:23;101436.50;;;16.68;82.25
72116;BME280;59991;52.140;5.428;2022-08-19T02:53:55;101434.13;;;16.66;82.38
72116;BME280;59991;52.140;5.428;2022-08-19T02:54:27;101441.63;;;16.66;82.50
72116;BME280;59991;52.140;5.428;2022-08-19T02:55:18;101439.66;;;16.66;82.37
72116;BME280;59991;52.140;5.428;2022-08-19T02:55:50;101438.06;;;16.65;82.39
72116;BME280;59991;52.140;5.428;2022-08-19T02:56:22;101436.50;;;16.64;82.61
72116;BME280;59991;52.140;5.428;2022-08-19T02:56:55;101441.22;;;16.64;82.72
72116;BME280;59991;52.140;5.428;2022-08-19T02:57:27;101436.13;;;16.58;82.91
72116;BME280;59991;52.140;5.428;2022-08-19T02:57:59;101434.53;;;16.57;82.70
72116;BME280;59991;52.140;5.428;2022-08-19T02:58:31;101436.13;;;16.58;82.79
72116;BME280;59991;52.140;5.428;2022-08-19T02:59:03;101448.28;;;16.61;82.59
72116;BME280;59991;52.140;5.428;2022-08-19T02:59:42;101439.28;;;16.57;83.11
72116;BME280;59991;52.140;5.428;2022-08-19T03:00:13;101438.88;;;16.58;82.79
72116;BME280;59991;52.140;5.428;2022-08-19T03:00:48;101440.88;;;16.54;83.25
72116;BME280;59991;52.140;5.428;2022-08-19T03:01:32;101442.81;;;16.57;82.65
72116;BME280;59991;52.140;5.428;2022-08-19T03:02:03;101439.66;;;16.55;82.36
72116;BME280;59991;52.140;5.428;2022-08-19T03:02:35;101441.63;;;16.55;82.70
72116;BME280;59991;52.140;5.428;2022-08-19T03:03:06;101443.63;;;16.54;82.58
72116;BME280;59991;52.140;5.428;2022-08-19T03:03:37;101436.56;;;16.53;82.51
72116;BME280;59991;52.140;5.428;2022-08-19T03:04:11;101440.88;;;16.54;82.96
72116;BME280;59991;52.140;5.428;2022-08-19T03:04:43;101443.25;;;16.52;83.02
72116;BME280;59991;52.140;5.428;2022-08-19T03:05:14;101442.88;;;16.50;82.96
72116;BME280;59991;52.140;5.428;2022-08-19T03:05:46;101442.09;;;16.50;82.81
72116;BME280;59991;52.140;5.428;2022-08-19T03:06:27;101451.50;;;16.52;83.08
72116;BME280;59991;52.140;5.428;2022-08-19T03:06:59;101444.44;;;16.51;82.71
72116;BME280;59991;52.140;5.428;2022-08-19T03:07:41;101440.53;;;16.49;82.67
72116;BME280;59991;52.140;5.428;2022-08-19T03:09:03;101448.78;;;16.49;82.78
72116;BME280;59991;52.140;5.428;2022-08-19T03:09:37;101442.50;;;16.48;82.86
72116;BME280;59991;52.140;5.428;2022-08-19T03:10:08;101444.84;;;16.46;82.95
72116;BME280;59991;52.140;5.428;2022-08-19T03:10:42;101445.63;;;16.47;82.77
72116;BME280;59991;52.140;5.428;2022-08-19T03:11:20;101444.47;;;16.48;82.68
72116;BME280;59991;52.140;5.428;2022-08-19T03:11:52;101439.75;;;16.45;82.74
72116;BME280;59991;52.140;5.428;2022-08-19T03:12:43;101442.09;;;16.50;82.88
72116;BME280;59991;52.140;5.428;2022-08-19T03:13:17;101442.50;;;16.48;82.98
72116;BME280;59991;52.140;5.428;2022-08-19T03:13:49;101435.81;;;16.46;82.96
72116;BME280;59991;52.140;5.428;2022-08-19T03:14:21;101435.41;;;16.47;82.78
72116;BME280;59991;52.140;5.428;2022-08-19T03:14:54;101430.72;;;16.44;82.95
72116;BME280;59991;52.140;5.428;2022-08-19T03:15:25;101440.53;;;16.45;83.03
72116;BME280;59991;52.140;5.428;2022-08-19T03:15:57;101431.91;;;16.43;82.93
72116;BME280;59991;52.140;5.428;2022-08-19T03:16:30;101438.97;;;16.44;82.61
72116;BME280;59991;52.140;5.428;2022-08-19T03:17:04;101433.47;;;16.44;82.81
72116;BME280;59991;52.140;5.428;2022-08-19T03:17:35;101428.34;;;16.43;82.83